Terminal Aerodrome Forecast
Issued by NWS Jackson, MS

Home | Current Version | Previous Version | Text Only | Print | Product List | Glossary On
Versions: 1 2 3 4 5 6 7 8 9 10 11 12 13 14 15 16
000
FTUS44 KMEG 191147
TAFTUP
TAF
KTUP 191147Z 1912/2012 VRB03KT P6SM VCSH SCT050
     FM191300 25003KT P6SM FEW035
     FM191700 27006KT P6SM VCSH SCT050
     FM200000 19003KT P6SM FEW250=

USA.gov is the U.S. government's official web portal to all federal, state and local government web resources and services.